Time;durP1;ratioP1;P1;durP2;ratioP2;P2;SDS_P1;SDS_P2;PMS_P1;PMS_P2;Temp;Humidity;BMP_temperature;BMP_pressure;BME280_temperature;BME280_humidity;BME280_pressure;Samples;Min_cycle;Max_cycle;Signal;HPM_P1;HPM_P2
2022/08/25 00:01:19;;;;;;;;;;;;;;;;;;5044592;28;19917;-79
2022/08/25 00:03:44;;;;;;;;;;;;;;;;;;5037882;28;19909;-79
2022/08/25 00:06:10;;;;;;;;;;;;;;;;;;5045760;28;19955;-79
2022/08/25 00:08:36;;;;;;;;;;;;;;;;;;5044584;28;19943;-80
2022/08/25 00:11:02;;;;;;;;;;;;;;;;;;5043572;28;19959;-80
2022/08/25 00:13:27;;;;;;;;;;;;;;;;;;5038273;28;19909;-80
2022/08/25 00:15:52;;;;;;;;;;;;;;;;;;5041099;28;20408;-81
2022/08/25 00:18:17;;;;;;;;;;;;;;;;;;5041379;28;19909;-81
2022/08/25 00:20:43;;;;;;;;;;;;;;;;;;5035261;28;19905;-81
2022/08/25 00:23:08;;;;;;;;;;;;;;;;;;5041761;28;19924;-80
2022/08/25 00:25:33;;;;;;;;;;;;;;;;;;5040343;28;19937;-81
2022/08/25 00:27:58;;;;;;;;;;;;;;;;;;5036904;28;19951;-82
2022/08/25 00:30:24;;;;;;;;;;;;;;;;;;5037539;28;19917;-81
2022/08/25 00:32:49;;;;;;;;;;;;;;;;;;5035516;28;19913;-81
2022/08/25 00:35:15;;;;;;;;;;;;;;;;;;5038492;28;19913;-82
2022/08/25 00:37:40;;;;;;;;;;;;;;;;;;5040644;28;19999;-81
2022/08/25 00:40:05;;;;;;;;;;;;;;;;;;5042077;28;19909;-81
2022/08/25 00:42:30;;;;;;;;;;;;;;;;;;5044589;28;19909;-82
2022/08/25 00:44:57;;;;;;;;;;;;;;;;;;5045754;28;19982;-81
2022/08/25 00:47:22;;;;;;;;;;;;;;;;;;5040158;28;20276;-81
2022/08/25 00:49:47;;;;;;;;;;;;;;;;;;5034848;28;19928;-81
2022/08/25 00:52:12;;;;;;;;;;;;;;;;;;5039688;28;20758;-82
2022/08/25 00:54:37;;;;;;;;;;;;;;;;;;5036902;28;19913;-81
2022/08/25 00:57:03;;;;;;;;;;;;;;;;;;5035320;28;19909;-80
2022/08/25 00:59:28;;;;;;;;;;;;;;;;;;5036776;28;19924;-80
2022/08/25 01:01:53;;;;;;;;;;;;;;;;;;5035063;28;20272;-80
2022/08/25 01:04:18;;;;;;;;;;;;;;;;;;5044943;28;19909;-80
2022/08/25 01:06:43;;;;;;;;;;;;;;;;;;5045948;28;20356;-80
2022/08/25 01:09:08;;;;;;;;;;;;;;;;;;5043905;28;20364;-80
2022/08/25 01:11:34;;;;;;;;;;;;;;;;;;5051281;28;20003;-80
2022/08/25 01:14:02;;;;;;;;;;;;;;;;;;5038367;28;19916;-80
2022/08/25 01:16:27;;;;;;;;;;;;;;;;;;5038058;28;19920;-80
2022/08/25 01:18:52;;;;;;;;;;;;;;;;;;5038833;28;19909;-79
2022/08/25 01:21:17;;;;;;;;;;;;;;;;;;5052076;28;19909;-80
2022/08/25 01:23:42;;;;;;;;;;;;;;;;;;5045687;28;20356;-80
2022/08/25 01:26:07;;;;;;;;;;;;;;;;;;5048343;28;19904;-80
2022/08/25 01:28:33;;;;;;;;;;;;;;;;;;5039702;28;19909;-80
2022/08/25 01:30:58;;;;;;;;;;;;;;;;;;5043138;28;20387;-79
2022/08/25 01:33:23;;;;;;;;;;;;;;;;;;5041736;28;20382;-80
2022/08/25 01:35:48;;;;;;;;;;;;;;;;;;5043891;28;19916;-80
2022/08/25 01:38:13;;;;;;;;;;;;;;;;;;5043291;28;19908;-80
2022/08/25 01:40:38;;;;;;;;;;;;;;;;;;5041840;28;20344;-80
2022/08/25 01:43:03;;;;;;;;;;;;;;;;;;5049181;28;20340;-80
2022/08/25 01:45:29;;;;;;;;;;;;;;;;;;5038105;28;19920;-80
2022/08/25 01:47:54;;;;;;;;;;;;;;;;;;5043430;28;19955;-80
2022/08/25 01:50:19;;;;;;;;;;;;;;;;;;5038912;28;19909;-80
2022/08/25 01:52:44;;;;;;;;;;;;;;;;;;5037872;28;20334;-80
2022/08/25 01:55:09;;;;;;;;;;;;;;;;;;5046258;28;20287;-81
2022/08/25 01:57:34;;;;;;;;;;;;;;;;;;5051657;28;19909;-81
2022/08/25 02:00:00;;;;;;;;;;;;;;;;;;5050013;28;19931;-81
2022/08/25 02:02:25;;;;;;;;;;;;;;;;;;5041175;28;19921;-82
2022/08/25 02:04:50;;;;;;;;;;;;;;;;;;5051812;28;19909;-81
2022/08/25 02:07:15;;;;;;;;;;;;;;;;;;5035188;28;19939;-81
2022/08/25 02:09:41;;;;;;;;;;;;;;;;;;5034616;28;19909;-82
2022/08/25 02:12:08;;;;;;;;;;;;;;;;;;5040810;28;20379;-81
2022/08/25 02:14:34;;;;;;;;;;;;;;;;;;5040848;28;20276;-82
2022/08/25 02:16:59;;;;;;;;;;;;;;;;;;5042319;28;19959;-82
2022/08/25 02:19:24;;;;;;;;;;;;;;;;;;5037282;28;19964;-82
2022/08/25 02:21:49;;;;;;;;;;;;;;;;;;5044536;28;19912;-82
2022/08/25 02:24:15;;;;;;;;;;;;;;;;;;5037889;28;19917;-82
2022/08/25 02:26:40;;;;;;;;;;;;;;;;;;5045085;28;19919;-83
2022/08/25 02:29:05;;;;;;;;;;;;;;;;;;5052197;28;19975;-83
2022/08/25 02:31:30;;;;;;;;;;;;;;;;;;5050905;28;19917;-81
2022/08/25 02:33:56;;;;;;;;;;;;;;;;;;5038119;28;19919;-82
2022/08/25 02:36:21;;;;;;;;;;;;;;;;;;5054740;28;20339;-83
2022/08/25 02:38:47;;;;;;;;;;;;;;;;;;5038948;28;19913;-83
2022/08/25 02:41:12;;;;;;;;;;;;;;;;;;5049498;28;19908;-83
2022/08/25 02:43:37;;;;;;;;;;;;;;;;;;5039170;28;19963;-83
2022/08/25 02:46:03;;;;;;;;;;;;;;;;;;5045676;28;19909;-82
2022/08/25 02:48:28;;;;;;;;;;;;;;;;;;5048776;28;20015;-83
2022/08/25 02:50:53;;;;;;;;;;;;;;;;;;5044818;28;19905;-83
2022/08/25 02:53:18;;;;;;;;;;;;;;;;;;5042748;28;19935;-83
2022/08/25 02:55:43;;;;;;;;;;;;;;;;;;5044920;28;20349;-81
2022/08/25 02:58:09;;;;;;;;;;;;;;;;;;5044624;28;19912;-80
2022/08/25 03:00:34;;;;;;;;;;;;;;;;;;5045695;28;19909;-79
2022/08/25 03:02:59;;;;;;;;;;;;;;;;;;5040258;28;19916;-79
2022/08/25 03:05:24;;;;;;;;;;;;;;;;;;5041446;28;19909;-78
2022/08/25 03:07:49;;;;;;;;;;;;;;;;;;5041113;28;19909;-79
2022/08/25 03:10:14;;;;;;;;;;;;;;;;;;5039652;28;19963;-78
2022/08/25 03:12:40;;;;;;;;;;;;;;;;;;5050428;28;19904;-78
2022/08/25 03:15:05;;;;;;;;;;;;;;;;;;5044732;28;20011;-78
2022/08/25 03:17:30;;;;;;;;;;;;;;;;;;5047216;28;19920;-78
2022/08/25 03:19:55;;;;;;;;;;;;;;;;;;5049064;28;19909;-78
2022/08/25 03:22:21;;;;;;;;;;;;;;;;;;5048994;28;19917;-78
2022/08/25 03:24:46;;;;;;;;;;;;;;;;;;5055351;28;20384;-78
2022/08/25 03:27:12;;;;;;;;;;;;;;;;;;5044031;28;20244;-78
2022/08/25 03:29:37;;;;;;;;;;;;;;;;;;5040561;28;19908;-78
2022/08/25 03:32:02;;;;;;;;;;;;;;;;;;5039874;28;20402;-78
2022/08/25 03:34:27;;;;;;;;;;;;;;;;;;5046879;28;20011;-78
2022/08/25 03:36:53;;;;;;;;;;;;;;;;;;5051093;28;19909;-78
2022/08/25 03:39:18;;;;;;;;;;;;;;;;;;5041896;28;19916;-78
2022/08/25 03:41:43;;;;;;;;;;;;;;;;;;5040339;28;19909;-78
2022/08/25 03:44:08;;;;;;;;;;;;;;;;;;5044146;28;19971;-78
2022/08/25 03:46:34;;;;;;;;;;;;;;;;;;5043559;28;20268;-78
2022/08/25 03:48:59;;;;;;;;;;;;;;;;;;5036694;28;20364;-78
2022/08/25 03:51:24;;;;;;;;;;;;;;;;;;5039649;28;19951;-78
2022/08/25 03:53:49;;;;;;;;;;;;;;;;;;5036545;28;20349;-78
2022/08/25 03:56:15;;;;;;;;;;;;;;;;;;5042349;28;19960;-78
2022/08/25 03:58:40;;;;;;;;;;;;;;;;;;5038513;28;19931;-78
2022/08/25 04:01:05;;;;;;;;;;;;;;;;;;5051963;28;20382;-78
2022/08/25 04:03:30;;;;;;;;;;;;;;;;;;5046698;28;19912;-78
2022/08/25 04:05:55;;;;;;;;;;;;;;;;;;5051714;28;19909;-78
2022/08/25 04:08:21;;;;;;;;;;;;;;;;;;5043594;28;19958;-78
2022/08/25 04:10:46;;;;;;;;;;;;;;;;;;5036074;28;19954;-78
2022/08/25 04:13:12;;;;;;;;;;;;;;;;;;5044162;28;20357;-78
2022/08/25 04:15:37;;;;;;;;;;;;;;;;;;5038287;28;19932;-78
2022/08/25 04:18:02;;;;;;;;;;;;;;;;;;5039615;28;20375;-78
2022/08/25 04:20:27;;;;;;;;;;;;;;;;;;5042257;28;19951;-78
2022/08/25 04:22:54;;;;;;;;;;;;;;;;;;5044032;28;19917;-78
2022/08/25 04:25:19;;;;;;;;;;;;;;;;;;5054161;28;19911;-78
2022/08/25 04:27:44;;;;;;;;;;;;;;;;;;5047011;28;19910;-78
2022/08/25 04:30:09;;;;;;;;;;;;;;;;;;5045052;28;20265;-78
2022/08/25 04:32:34;;;;;;;;;;;;;;;;;;5036350;28;19909;-78
2022/08/25 04:35:00;;;;;;;;;;;;;;;;;;5040003;28;19948;-78
2022/08/25 04:37:25;;;;;;;;;;;;;;;;;;5041929;28;19915;-78
2022/08/25 04:39:50;;;;;;;;;;;;;;;;;;5036223;28;19905;-78
2022/08/25 04:42:15;;;;;;;;;;;;;;;;;;5044404;28;19960;-78
2022/08/25 04:44:40;;;;;;;;;;;;;;;;;;5040384;28;19913;-78
2022/08/25 04:47:05;;;;;;;;;;;;;;;;;;5036410;28;20318;-78
2022/08/25 04:49:30;;;;;;;;;;;;;;;;;;5041873;28;20337;-78
2022/08/25 04:51:56;;;;;;;;;;;;;;;;;;5045863;28;19909;-78
2022/08/25 04:54:21;;;;;;;;;;;;;;;;;;5044012;28;19923;-78
2022/08/25 04:56:47;;;;;;;;;;;;;;;;;;5048268;28;20348;-78
2022/08/25 04:59:12;;;;;;;;;;;;;;;;;;5041182;28;19908;-78
2022/08/25 05:01:37;;;;;;;;;;;;;;;;;;5040737;28;19908;-78
2022/08/25 05:04:02;;;;;;;;;;;;;;;;;;5038223;28;19992;-78
2022/08/25 05:06:27;;;;;;;;;;;;;;;;;;5047143;28;19962;-78
2022/08/25 05:08:53;;;;;;;;;;;;;;;;;;5044889;28;19909;-78
2022/08/25 05:11:18;;;;;;;;;;;;;;;;;;5043653;28;20339;-78
2022/08/25 05:13:43;;;;;;;;;;;;;;;;;;5035149;28;19916;-78
2022/08/25 05:16:08;;;;;;;;;;;;;;;;;;5039987;28;19924;-78
2022/08/25 05:18:33;;;;;;;;;;;;;;;;;;5035999;28;19959;-78
2022/08/25 05:20:58;;;;;;;;;;;;;;;;;;5039883;28;19909;-78
2022/08/25 05:23:24;;;;;;;;;;;;;;;;;;5034876;28;20400;-79
2022/08/25 05:25:49;;;;;;;;;;;;;;;;;;5042965;28;19905;-78
2022/08/25 05:28:14;;;;;;;;;;;;;;;;;;5043328;28;19955;-79
2022/08/25 05:30:40;;;;;;;;;;;;;;;;;;5045459;28;20004;-79
2022/08/25 05:33:05;;;;;;;;;;;;;;;;;;5044538;28;19909;-79
2022/08/25 05:35:30;;;;;;;;;;;;;;;;;;5035072;28;19920;-79
2022/08/25 05:37:56;;;;;;;;;;;;;;;;;;5037489;28;19948;-79
2022/08/25 05:40:21;;;;;;;;;;;;;;;;;;5037422;28;19909;-78
2022/08/25 05:42:46;;;;;;;;;;;;;;;;;;5048657;28;19995;-79
2022/08/25 05:45:12;;;;;;;;;;;;;;;;;;5042328;28;19909;-79
2022/08/25 05:47:37;;;;;;;;;;;;;;;;;;5040538;28;20364;-79
2022/08/25 05:50:02;;;;;;;;;;;;;;;;;;5047385;28;19916;-79
2022/08/25 05:52:28;;;;;;;;;;;;;;;;;;5045041;28;19905;-79
2022/08/25 05:54:53;;;;;;;;;;;;;;;;;;5038804;28;19917;-79
2022/08/25 05:57:18;;;;;;;;;;;;;;;;;;5040045;28;19956;-79
2022/08/25 05:59:43;;;;;;;;;;;;;;;;;;5041973;28;19935;-79
2022/08/25 06:04:52;;;;;;;;;;;;;;;;;;5040566;28;19915;-80
2022/08/25 06:07:17;;;;;;;;;;;;;;;;;;5052675;28;20003;-80
2022/08/25 06:09:44;;;;;;;;;;;;;;;;;;5056895;28;20378;-80
2022/08/25 06:12:09;;;;;;;;;;;;;;;;;;5052810;28;20356;-80
2022/08/25 06:14:35;;;;;;;;;;;;;;;;;;5038420;28;19919;-80
2022/08/25 06:17:00;;;;;;;;;;;;;;;;;;5051340;28;20269;-80
2022/08/25 06:19:26;;;;;;;;;;;;;;;;;;5047342;28;20011;-80
2022/08/25 06:21:51;;;;;;;;;;;;;;;;;;5044455;28;19999;-80
2022/08/25 06:24:16;;;;;;;;;;;;;;;;;;5038154;28;19917;-80
2022/08/25 06:26:42;;;;;;;;;;;;;;;;;;5048326;28;19905;-80
2022/08/25 06:29:07;;;;;;;;;;;;;;;;;;5048059;28;19916;-80
2022/08/25 06:31:33;;;;;;;;;;;;;;;;;;5047838;28;19908;-81
2022/08/25 06:33:58;;;;;;;;;;;;;;;;;;5050093;28;20410;-80
2022/08/25 06:36:23;;;;;;;;;;;;;;;;;;5047141;28;19913;-81
2022/08/25 06:38:48;;;;;;;;;;;;;;;;;;5051178;28;19909;-81
2022/08/25 06:41:15;;;;;;;;;;;;;;;;;;5053293;28;20356;-81
2022/08/25 06:43:40;;;;;;;;;;;;;;;;;;5050865;28;20356;-81
2022/08/25 06:46:05;;;;;;;;;;;;;;;;;;5047970;28;19909;-81
2022/08/25 06:48:30;;;;;;;;;;;;;;;;;;5042725;28;20271;-81
2022/08/25 06:50:55;;;;;;;;;;;;;;;;;;5052369;28;19904;-81
2022/08/25 06:53:20;;;;;;;;;;;;;;;;;;5040254;28;19913;-81
2022/08/25 06:55:46;;;;;;;;;;;;;;;;;;5042202;28;19912;-80
2022/08/25 06:58:11;;;;;;;;;;;;;;;;;;5049460;28;19913;-80
2022/08/25 07:00:36;;;;;;;;;;;;;;;;;;5046415;28;20311;-81
2022/08/25 07:03:03;;;;;;;;;;;;;;;;;;5041120;28;20012;-81
2022/08/25 07:05:28;;;;;;;;;;;;;;;;;;5025579;28;20300;-81
2022/08/25 07:07:53;;;;;;;;;;;;;;;;;;5039057;28;20736;-81
2022/08/25 07:10:19;;;;;;;;;;;;;;;;;;5049790;28;19905;-80
2022/08/25 07:12:44;;;;;;;;;;;;;;;;;;5041504;28;19912;-80
2022/08/25 07:15:10;;;;;;;;;;;;;;;;;;5041652;28;19921;-81
2022/08/25 07:17:35;;;;;;;;;;;;;;;;;;5039329;28;20281;-81
2022/08/25 07:20:00;;;;;;;;;;;;;;;;;;5046988;28;19961;-81
2022/08/25 07:22:25;;;;;;;;;;;;;;;;;;5038141;28;19935;-80
2022/08/25 07:24:50;;;;;;;;;;;;;;;;;;5042432;28;20279;-80
2022/08/25 07:27:15;;;;;;;;;;;;;;;;;;5032049;28;19920;-80
2022/08/25 07:29:40;;;;;;;;;;;;;;;;;;5035528;28;20405;-80
2022/08/25 07:32:06;;;;;;;;;;;;;;;;;;5034620;28;19942;-80
2022/08/25 07:37:14;;;;;;;;;;;;;;;;;;5039103;28;19974;-80
2022/08/25 07:39:40;;;;;;;;;;;;;;;;;;5033787;28;19909;-80
2022/08/25 07:42:05;;;;;;;;;;;;;;;;;;5046533;28;19992;-80
2022/08/25 07:44:30;;;;;;;;;;;;;;;;;;5034739;28;20363;-79
2022/08/25 07:46:55;;;;;;;;;;;;;;;;;;5036486;28;19909;-79
2022/08/25 07:49:20;;;;;;;;;;;;;;;;;;5032957;28;20315;-79
2022/08/25 07:51:46;;;;;;;;;;;;;;;;;;5042841;28;19905;-79
2022/08/25 07:54:11;;;;;;;;;;;;;;;;;;5034313;28;19948;-79
2022/08/25 07:56:36;;;;;;;;;;;;;;;;;;5038324;28;19919;-79
2022/08/25 07:59:01;;;;;;;;;;;;;;;;;;5044152;28;19913;-79
2022/08/25 08:01:26;;;;;;;;;;;;;;;;;;5047527;28;19909;-79
2022/08/25 08:03:51;;;;;;;;;;;;;;;;;;5040099;28;19915;-79
2022/08/25 08:06:17;;;;;;;;;;;;;;;;;;5040499;28;19913;-79
2022/08/25 08:08:44;;;;;;;;;;;;;;;;;;5035955;28;20327;-79
2022/08/25 08:11:09;;;;;;;;;;;;;;;;;;5031145;28;19988;-79
2022/08/25 08:13:34;;;;;;;;;;;;;;;;;;5042810;28;20051;-79
2022/08/25 08:16:00;;;;;;;;;;;;;;;;;;5034078;28;20265;-79
2022/08/25 08:18:25;;;;;;;;;;;;;;;;;;5043956;28;19915;-79
2022/08/25 08:20:50;;;;;;;;;;;;;;;;;;5049600;28;19911;-79
2022/08/25 08:23:15;;;;;;;;;;;;;;;;;;5054391;28;19917;-79
2022/08/25 08:25:40;;;;;;;;;;;;;;;;;;5051458;28;19928;-79
2022/08/25 08:28:05;;;;;;;;;;;;;;;;;;5038212;28;19996;-79
2022/08/25 08:30:31;;;;;;;;;;;;;;;;;;5041513;28;20300;-79
2022/08/25 08:32:56;;;;;;;;;;;;;;;;;;5040903;28;20303;-79
2022/08/25 08:35:21;;;;;;;;;;;;;;;;;;5043445;28;20414;-79
2022/08/25 08:37:46;;;;;;;;;;;;;;;;;;5041165;28;19905;-79
2022/08/25 08:40:11;;;;;;;;;;;;;;;;;;5043266;28;19909;-79
2022/08/25 08:42:36;;;;;;;;;;;;;;;;;;5037129;28;19905;-79
2022/08/25 08:45:01;;;;;;;;;;;;;;;;;;5034137;28;19911;-80
2022/08/25 08:47:27;;;;;;;;;;;;;;;;;;5051423;28;19940;-79
2022/08/25 08:49:52;;;;;;;;;;;;;;;;;;5050425;28;20411;-79
2022/08/25 08:52:17;;;;;;;;;;;;;;;;;;5036748;28;19905;-79
2022/08/25 08:54:42;;;;;;;;;;;;;;;;;;5038406;28;20249;-79
2022/08/25 08:57:07;;;;;;;;;;;;;;;;;;5043601;28;19905;-79
2022/08/25 08:59:32;;;;;;;;;;;;;;;;;;5039892;28;19952;-79
2022/08/25 09:01:58;;;;;;;;;;;;;;;;;;5044335;28;20257;-78
2022/08/25 09:04:23;;;;;;;;;;;;;;;;;;5043520;28;19948;-78
2022/08/25 09:06:48;;;;;;;;;;;;;;;;;;5044490;28;19968;-78
2022/08/25 09:09:14;;;;;;;;;;;;;;;;;;5043126;28;20284;-78
2022/08/25 09:11:39;;;;;;;;;;;;;;;;;;5048468;28;19905;-78
2022/08/25 09:14:04;;;;;;;;;;;;;;;;;;5044967;28;20265;-78
2022/08/25 09:19:13;;;;;;;;;;;;;;;;;;5037362;28;19958;-78
2022/08/25 09:21:38;;;;;;;;;;;;;;;;;;5028838;28;19908;-78
2022/08/25 09:24:04;;;;;;;;;;;;;;;;;;5030267;28;19928;-78
2022/08/25 09:26:29;;;;;;;;;;;;;;;;;;5030516;28;19959;-78
2022/08/25 09:28:54;;;;;;;;;;;;;;;;;;5043203;28;19919;-78
2022/08/25 09:31:19;;;;;;;;;;;;;;;;;;5033346;28;19905;-78
2022/08/25 09:33:45;;;;;;;;;;;;;;;;;;5037159;28;19970;-79
2022/08/25 09:36:10;;;;;;;;;;;;;;;;;;5040216;28;19986;-78
2022/08/25 09:38:35;;;;;;;;;;;;;;;;;;5040900;28;19909;-78
2022/08/25 09:41:00;;;;;;;;;;;;;;;;;;5038422;28;19951;-78
2022/08/25 09:43:25;;;;;;;;;;;;;;;;;;5044146;28;19909;-78
2022/08/25 09:45:50;;;;;;;;;;;;;;;;;;5031352;28;19927;-78
2022/08/25 09:48:16;;;;;;;;;;;;;;;;;;5040619;28;19905;-78
2022/08/25 09:50:41;;;;;;;;;;;;;;;;;;5040118;28;19951;-79
2022/08/25 09:53:06;;;;;;;;;;;;;;;;;;5042709;28;20311;-78
2022/08/25 09:55:33;;;;;;;;;;;;;;;;;;5041980;28;20423;-78
2022/08/25 09:57:58;;;;;;;;;;;;;;;;;;5027465;28;19915;-78
2022/08/25 10:00:23;;;;;;;;;;;;;;;;;;5048234;28;20089;-78
2022/08/25 10:02:48;;;;;;;;;;;;;;;;;;5036855;28;19905;-78
2022/08/25 10:05:13;;;;;;;;;;;;;;;;;;5039855;28;19963;-78
2022/08/25 10:07:38;;;;;;;;;;;;;;;;;;5039395;28;19945;-78
2022/08/25 10:10:06;;;;;;;;;;;;;;;;;;5027013;28;19959;-78
2022/08/25 10:12:31;;;;;;;;;;;;;;;;;;5038997;28;19924;-78
2022/08/25 10:14:56;;;;;;;;;;;;;;;;;;5038593;28;19913;-78
2022/08/25 10:17:23;;;;;;;;;;;;;;;;;;5041219;28;19919;-78
2022/08/25 10:19:49;;;;;;;;;;;;;;;;;;5039359;28;20006;-78
2022/08/25 10:22:14;;;;;;;;;;;;;;;;;;5039041;28;19944;-78
2022/08/25 10:24:39;;;;;;;;;;;;;;;;;;5041015;28;19921;-78
2022/08/25 10:27:05;;;;;;;;;;;;;;;;;;5041278;28;20245;-78
2022/08/25 10:29:30;;;;;;;;;;;;;;;;;;5026812;28;20018;-78
2022/08/25 10:31:55;;;;;;;;;;;;;;;;;;5028211;28;19911;-77
2022/08/25 10:34:20;;;;;;;;;;;;;;;;;;5030982;28;19909;-79
2022/08/25 10:36:45;;;;;;;;;;;;;;;;;;5033957;28;20343;-78
2022/08/25 10:39:10;;;;;;;;;;;;;;;;;;5036257;28;20896;-77
2022/08/25 10:41:35;;;;;;;;;;;;;;;;;;5046048;28;19916;-78
2022/08/25 10:44:00;;;;;;;;;;;;;;;;;;5046394;28;20356;-77
2022/08/25 10:46:26;;;;;;;;;;;;;;;;;;5034831;28;20324;-78
2022/08/25 10:48:51;;;;;;;;;;;;;;;;;;5047340;28;20318;-78
2022/08/25 10:51:16;;;;;;;;;;;;;;;;;;5046417;28;19913;-78
2022/08/25 10:53:41;;;;;;;;;;;;;;;;;;5041709;28;19909;-78
2022/08/25 10:56:07;;;;;;;;;;;;;;;;;;5046158;28;19964;-77
2022/08/25 10:58:32;;;;;;;;;;;;;;;;;;5047709;28;19909;-78
2022/08/25 11:00:58;;;;;;;;;;;;;;;;;;5050460;28;19905;-78
2022/08/25 11:03:23;;;;;;;;;;;;;;;;;;5038663;28;19915;-77
2022/08/25 11:05:48;;;;;;;;;;;;;;;;;;5044068;28;19912;-78
2022/08/25 11:08:13;;;;;;;;;;;;;;;;;;5046468;28;19904;-78
2022/08/25 11:10:39;;;;;;;;;;;;;;;;;;5050402;28;20003;-78
2022/08/25 11:13:04;;;;;;;;;;;;;;;;;;5049702;28;19947;-78
2022/08/25 11:15:29;;;;;;;;;;;;;;;;;;5041799;28;20707;-78
2022/08/25 11:17:54;;;;;;;;;;;;;;;;;;5037411;28;19913;-78
2022/08/25 11:20:19;;;;;;;;;;;;;;;;;;5041229;28;19905;-79
2022/08/25 11:22:45;;;;;;;;;;;;;;;;;;5042810;28;19917;-78
2022/08/25 11:25:10;;;;;;;;;;;;;;;;;;5044817;28;19913;-78
2022/08/25 11:27:35;;;;;;;;;;;;;;;;;;5033464;28;19982;-78
2022/08/25 11:30:00;;;;;;;;;;;;;;;;;;5037850;28;20356;-79
2022/08/25 11:32:25;;;;;;;;;;;;;;;;;;5038752;28;20400;-79
2022/08/25 11:34:50;;;;;;;;;;;;;;;;;;5042023;28;19920;-79
2022/08/25 11:37:16;;;;;;;;;;;;;;;;;;5047194;28;19905;-79
2022/08/25 11:39:41;;;;;;;;;;;;;;;;;;5047658;28;19956;-79
2022/08/25 11:42:06;;;;;;;;;;;;;;;;;;5039621;28;19913;-79
2022/08/25 11:44:31;;;;;;;;;;;;;;;;;;5035029;28;19909;-79
2022/08/25 11:46:56;;;;;;;;;;;;;;;;;;5040119;28;20272;-79
2022/08/25 11:49:21;;;;;;;;;;;;;;;;;;5037551;28;19915;-80
2022/08/25 11:51:46;;;;;;;;;;;;;;;;;;5033770;28;19915;-80
2022/08/25 11:54:12;;;;;;;;;;;;;;;;;;5026205;28;19971;-80
2022/08/25 11:56:37;;;;;;;;;;;;;;;;;;5038671;28;19932;-80
2022/08/25 11:59:04;;;;;;;;;;;;;;;;;;5039890;28;19909;-80
2022/08/25 12:01:29;;;;;;;;;;;;;;;;;;5046853;28;19908;-80
2022/08/25 12:03:54;;;;;;;;;;;;;;;;;;5045141;28;19905;-81
2022/08/25 12:06:20;;;;;;;;;;;;;;;;;;5048661;28;19904;-82
2022/08/25 12:08:45;;;;;;;;;;;;;;;;;;5041131;28;19909;-82
2022/08/25 12:11:10;;;;;;;;;;;;;;;;;;5034718;28;19932;-82
2022/08/25 12:13:35;;;;;;;;;;;;;;;;;;5035387;28;19944;-82
2022/08/25 12:16:00;;;;;;;;;;;;;;;;;;5036321;28;19921;-83
2022/08/25 12:18:25;;;;;;;;;;;;;;;;;;5036949;28;19913;-84
2022/08/25 12:20:51;;;;;;;;;;;;;;;;;;5037057;28;20016;-84
2022/08/25 12:23:16;;;;;;;;;;;;;;;;;;5033029;28;19921;-85
2022/08/25 12:25:41;;;;;;;;;;;;;;;;;;5039732;28;19905;-84
2022/08/25 12:28:06;;;;;;;;;;;;;;;;;;5041351;28;19940;-84
2022/08/25 12:30:31;;;;;;;;;;;;;;;;;;5046721;28;19920;-86
2022/08/25 12:32:57;;;;;;;;;;;;;;;;;;5032852;28;19951;-85
2022/08/25 12:35:22;;;;;;;;;;;;;;;;;;5038763;28;20265;-83
2022/08/25 12:37:47;;;;;;;;;;;;;;;;;;5034152;28;19963;-85
2022/08/25 12:40:12;;;;;;;;;;;;;;;;;;5032069;28;19908;-84
2022/08/25 12:42:37;;;;;;;;;;;;;;;;;;5033296;28;19909;-84
2022/08/25 12:45:03;;;;;;;;;;;;;;;;;;5032256;28;20008;-85
2022/08/25 12:47:31;;;;;;;;;;;;;;;;;;5034524;28;20275;-83
2022/08/25 12:49:56;;;;;;;;;;;;;;;;;;5030723;28;20257;-82
2022/08/25 12:52:21;;;;;;;;;;;;;;;;;;5030963;28;19920;-81
2022/08/25 12:54:46;;;;;;;;;;;;;;;;;;5030938;28;19920;-80
2022/08/25 12:57:11;;;;;;;;;;;;;;;;;;5033296;28;19936;-80
2022/08/25 12:59:37;;;;;;;;;;;;;;;;;;5030630;28;19913;-80
2022/08/25 13:02:02;;;;;;;;;;;;;;;;;;5031976;28;19913;-80
2022/08/25 13:04:27;;;;;;;;;;;;;;;;;;5037793;28;19905;-79
2022/08/25 13:06:52;;;;;;;;;;;;;;;;;;5038882;28;19916;-80
2022/08/25 13:09:17;;;;;;;;;;;;;;;;;;5035246;28;20337;-80
2022/08/25 13:11:44;;;;;;;;;;;;;;;;;;5031404;28;19959;-79
2022/08/25 13:14:09;;;;;;;;;;;;;;;;;;5038900;28;19913;-79
2022/08/25 13:16:34;;;;;;;;;;;;;;;;;;5040508;28;19912;-79
2022/08/25 13:19:00;;;;;;;;;;;;;;;;;;5037066;28;19905;-79
2022/08/25 13:21:25;;;;;;;;;;;;;;;;;;5042050;28;19909;-79
2022/08/25 13:23:50;;;;;;;;;;;;;;;;;;5039918;28;20427;-78
2022/08/25 13:26:15;;;;;;;;;;;;;;;;;;5038740;28;19912;-78
2022/08/25 13:28:41;;;;;;;;;;;;;;;;;;5032730;28;20339;-78
2022/08/25 13:31:06;;;;;;;;;;;;;;;;;;5037772;28;19905;-78
2022/08/25 13:33:32;;;;;;;;;;;;;;;;;;5036843;28;19970;-78
2022/08/25 13:38:40;;;;;;;;;;;;;;;;;;5034775;28;19915;-78
2022/08/25 13:41:06;;;;;;;;;;;;;;;;;;5045912;28;19912;-78
2022/08/25 13:43:31;;;;;;;;;;;;;;;;;;5039270;28;20400;-79
2022/08/25 13:45:56;;;;;;;;;;;;;;;;;;5038567;28;19909;-78
2022/08/25 13:48:21;;;;;;;;;;;;;;;;;;5043000;28;19908;-78
2022/08/25 13:50:46;;;;;;;;;;;;;;;;;;5034368;28;19905;-78
2022/08/25 13:53:12;;;;;;;;;;;;;;;;;;5041758;28;20011;-78
2022/08/25 13:55:37;;;;;;;;;;;;;;;;;;5039672;28;19978;-78
2022/08/25 13:58:02;;;;;;;;;;;;;;;;;;5036623;28;19916;-78
2022/08/25 14:00:27;;;;;;;;;;;;;;;;;;5039904;28;19995;-78
2022/08/25 14:02:52;;;;;;;;;;;;;;;;;;5038469;28;19915;-78
2022/08/25 14:05:17;;;;;;;;;;;;;;;;;;5037619;28;19916;-78
2022/08/25 14:07:42;;;;;;;;;;;;;;;;;;5040432;28;19904;-78
2022/08/25 14:10:08;;;;;;;;;;;;;;;;;;5045967;28;19915;-78
2022/08/25 14:12:33;;;;;;;;;;;;;;;;;;5047642;28;19913;-78
2022/08/25 14:14:58;;;;;;;;;;;;;;;;;;5049129;28;19912;-78
2022/08/25 14:17:24;;;;;;;;;;;;;;;;;;5040380;28;19955;-78
2022/08/25 14:19:49;;;;;;;;;;;;;;;;;;5042058;28;20004;-78
2022/08/25 14:22:14;;;;;;;;;;;;;;;;;;5049999;28;19905;-78
2022/08/25 14:24:39;;;;;;;;;;;;;;;;;;5052067;28;20351;-78
2022/08/25 14:27:04;;;;;;;;;;;;;;;;;;5041839;28;19904;-78
2022/08/25 14:29:30;;;;;;;;;;;;;;;;;;5050095;28;19909;-78
2022/08/25 14:31:55;;;;;;;;;;;;;;;;;;5035509;28;19909;-78
2022/08/25 14:34:20;;;;;;;;;;;;;;;;;;5037095;28;19904;-78
2022/08/25 14:36:47;;;;;;;;;;;;;;;;;;5040958;28;19913;-78
2022/08/25 14:39:13;;;;;;;;;;;;;;;;;;5040457;28;20279;-78
2022/08/25 14:41:39;;;;;;;;;;;;;;;;;;5045305;28;19995;-78
2022/08/25 14:44:04;;;;;;;;;;;;;;;;;;5042346;28;19908;-78
2022/08/25 14:46:29;;;;;;;;;;;;;;;;;;5040027;28;19924;-78
2022/08/25 14:48:55;;;;;;;;;;;;;;;;;;5034706;28;19920;-78
2022/08/25 14:51:20;;;;;;;;;;;;;;;;;;5027485;28;19928;-78
2022/08/25 14:53:45;;;;;;;;;;;;;;;;;;5032865;28;19909;-78
2022/08/25 14:56:11;;;;;;;;;;;;;;;;;;5039546;28;20010;-78
2022/08/25 14:58:36;;;;;;;;;;;;;;;;;;5038976;28;19905;-78
2022/08/25 15:01:01;;;;;;;;;;;;;;;;;;5044827;28;20003;-78
2022/08/25 15:03:26;;;;;;;;;;;;;;;;;;5035784;28;20273;-78
2022/08/25 15:05:52;;;;;;;;;;;;;;;;;;5037427;28;19913;-78
2022/08/25 15:11:00;;;;;;;;;;;;;;;;;;5023001;28;20074;-78
2022/08/25 15:13:26;;;;;;;;;;;;;;;;;;5045482;28;20404;-78
2022/08/25 15:15:51;;;;;;;;;;;;;;;;;;5034593;28;20361;-78
2022/08/25 15:18:16;;;;;;;;;;;;;;;;;;5033142;28;20368;-78
2022/08/25 15:20:41;;;;;;;;;;;;;;;;;;5034490;28;20308;-78
2022/08/25 15:23:07;;;;;;;;;;;;;;;;;;5040169;28;19917;-78
2022/08/25 15:25:32;;;;;;;;;;;;;;;;;;5040077;28;19948;-78
2022/08/25 15:27:59;;;;;;;;;;;;;;;;;;5042337;28;19927;-78
2022/08/25 15:30:24;;;;;;;;;;;;;;;;;;5043176;28;19912;-78
2022/08/25 15:32:49;;;;;;;;;;;;;;;;;;5048132;28;20015;-78
2022/08/25 15:35:14;;;;;;;;;;;;;;;;;;5039258;28;19991;-78
2022/08/25 15:37:40;;;;;;;;;;;;;;;;;;5043533;28;20272;-78
2022/08/25 15:40:07;;;;;;;;;;;;;;;;;;5040291;28;20289;-78
2022/08/25 15:42:32;;;;;;;;;;;;;;;;;;5042166;28;19917;-78
2022/08/25 15:44:57;;;;;;;;;;;;;;;;;;5031599;28;19912;-78
2022/08/25 15:47:27;;;;;;;;;;;;;;;;;;5042696;28;19950;-78
2022/08/25 15:49:52;;;;;;;;;;;;;;;;;;5039146;28;19967;-79
2022/08/25 15:52:17;;;;;;;;;;;;;;;;;;5042001;28;19909;-78
2022/08/25 15:54:42;;;;;;;;;;;;;;;;;;5032785;28;20000;-78
2022/08/25 15:57:07;;;;;;;;;;;;;;;;;;5040892;28;19909;-78
2022/08/25 15:59:32;;;;;;;;;;;;;;;;;;5034466;28;20379;-78
2022/08/25 16:01:58;;;;;;;;;;;;;;;;;;5038149;28;19912;-78
2022/08/25 16:04:23;;;;;;;;;;;;;;;;;;5042205;28;19999;-78
2022/08/25 16:06:48;;;;;;;;;;;;;;;;;;5049726;28;19905;-79
2022/08/25 16:09:13;;;;;;;;;;;;;;;;;;5038975;28;19905;-78
2022/08/25 16:11:38;;;;;;;;;;;;;;;;;;5046570;28;20066;-79
2022/08/25 16:14:03;;;;;;;;;;;;;;;;;;5043424;28;19916;-79
2022/08/25 16:16:28;;;;;;;;;;;;;;;;;;5037315;28;20371;-79
2022/08/25 16:18:54;;;;;;;;;;;;;;;;;;5038479;28;19913;-78
2022/08/25 16:21:19;;;;;;;;;;;;;;;;;;5034379;28;19951;-77
2022/08/25 16:23:44;;;;;;;;;;;;;;;;;;5034489;28;20265;-77
2022/08/25 16:26:09;;;;;;;;;;;;;;;;;;5038267;28;19909;-75
2022/08/25 16:28:35;;;;;;;;;;;;;;;;;;5037081;28;19966;-75
2022/08/25 16:31:00;;;;;;;;;;;;;;;;;;5031986;28;19937;-76
2022/08/25 16:33:25;;;;;;;;;;;;;;;;;;5033868;28;20265;-76
2022/08/25 16:35:50;;;;;;;;;;;;;;;;;;5035156;28;20334;-78
2022/08/25 16:38:16;;;;;;;;;;;;;;;;;;5033719;28;20353;-78
2022/08/25 16:40:42;;;;;;;;;;;;;;;;;;5036240;28;20438;-78
2022/08/25 16:43:07;;;;;;;;;;;;;;;;;;5036825;28;19911;-78
2022/08/25 16:45:32;;;;;;;;;;;;;;;;;;5035980;28;19905;-79